Time;durP1;ratioP1;P1;durP2;ratioP2;P2;SDS_P1;SDS_P2;PMS_P1;PMS_P2;Temp;Humidity;BMP_temperature;BMP_pressure;BME280_temperature;BME280_humidity;BME280_pressure;Samples;Min_cycle;Max_cycle;Signal;HPM_P1;HPM_P2
2023/12/11 00:02:11;;;;;;;16.57;4.90;;;5.70;99.90;;;;;;5025022;28;20548;-83
2023/12/11 00:04:39;;;;;;;9.93;4.10;;;5.60;99.90;;;;;;5019711;28;20228;-83
2023/12/11 00:07:06;;;;;;;13.53;3.80;;;5.60;99.90;;;;;;5010429;28;20737;-83
2023/12/11 00:09:33;;;;;;;13.93;3.97;;;5.70;99.90;;;;;;5025534;28;20221;-83
2023/12/11 00:12:00;;;;;;;18.57;4.53;;;5.60;99.90;;;;;;5008902;28;20240;-82
2023/12/11 00:14:27;;;;;;;13.83;4.30;;;5.70;99.90;;;;;;4997817;28;20264;-83
2023/12/11 00:16:54;;;;;;;12.60;4.00;;;5.60;99.90;;;;;;4995314;28;20767;-83
2023/12/11 00:19:21;;;;;;;20.03;4.57;;;5.60;99.90;;;;;;5008064;28;20236;-82
2023/12/11 00:21:50;;;;;;;13.73;4.00;;;5.60;99.90;;;;;;4985865;28;20251;-82
2023/12/11 00:24:17;;;;;;;14.47;3.47;;;5.60;99.90;;;;;;4988123;28;20240;-82
2023/12/11 00:26:43;;;;;;;10.43;3.13;;;5.60;99.90;;;;;;4988204;28;20229;-81
2023/12/11 00:29:10;;;;;;;11.03;2.90;;;5.60;99.90;;;;;;4988264;28;20222;-81
2023/12/11 00:31:37;;;;;;;11.57;3.03;;;5.60;99.90;;;;;;4986866;28;20714;-81
2023/12/11 00:34:04;;;;;;;10.57;3.10;;;5.60;99.90;;;;;;4988534;28;20229;-81
2023/12/11 00:36:30;;;;;;;11.03;2.87;;;5.50;99.90;;;;;;4986842;28;20296;-82
2023/12/11 00:38:58;;;;;;;12.73;2.70;;;5.50;99.90;;;;;;4987428;28;20225;-83
2023/12/11 00:41:25;;;;;;;7.53;2.67;;;5.50;99.90;;;;;;4986660;28;20311;-82
2023/12/11 00:43:52;;;;;;;10.70;2.43;;;5.50;99.90;;;;;;4984921;28;20234;-82
2023/12/11 00:46:22;;;;;;;11.77;2.70;;;5.50;99.90;;;;;;4990142;28;20264;-82
2023/12/11 00:48:48;;;;;;;9.43;2.43;;;5.50;99.90;;;;;;4991071;28;20251;-82
2023/12/11 00:51:16;;;;;;;11.87;2.93;;;5.50;99.90;;;;;;4989622;28;20694;-83
2023/12/11 00:53:43;;;;;;;19.47;2.87;;;5.50;99.90;;;;;;5005779;28;20267;-83
2023/12/11 00:56:11;;;;;;;18.73;3.43;;;5.50;99.90;;;;;;4988603;28;20296;-83
2023/12/11 00:58:38;;;;;;;8.67;2.47;;;5.50;99.90;;;;;;5001974;28;20294;-83
2023/12/11 01:01:05;;;;;;;6.97;2.10;;;5.50;99.90;;;;;;5019974;28;20298;-83
2023/12/11 01:03:31;;;;;;;8.97;2.10;;;5.50;99.90;;;;;;4988365;28;20290;-83
2023/12/11 01:05:58;;;;;;;11.90;2.50;;;5.50;99.90;;;;;;4988999;28;20213;-83
2023/12/11 01:08:27;;;;;;;18.40;3.37;;;5.60;99.90;;;;;;4996757;28;20231;-83
2023/12/11 01:10:54;;;;;;;8.63;2.07;;;5.50;99.90;;;;;;5021635;28;20283;-83
2023/12/11 01:13:22;;;;;;;10.77;2.07;;;5.60;99.90;;;;;;4998738;28;20287;-83
2023/12/11 01:15:49;;;;;;;9.77;2.67;;;5.60;99.90;;;;;;5004659;28;20244;-83
2023/12/11 01:18:16;;;;;;;16.40;2.87;;;5.60;99.90;;;;;;5006477;28;20514;-83
2023/12/11 01:20:43;;;;;;;10.03;2.10;;;5.50;99.90;;;;;;5008118;28;20247;-83
2023/12/11 01:23:10;;;;;;;10.00;2.10;;;5.60;99.90;;;;;;5006883;28;20256;-83
2023/12/11 01:25:37;;;;;;;7.80;2.10;;;5.60;99.90;;;;;;5022076;28;20984;-82
2023/12/11 01:28:04;;;;;;;14.23;2.40;;;5.60;99.90;;;;;;5025944;28;20228;-83
2023/12/11 01:30:32;;;;;;;6.87;2.00;;;5.60;99.90;;;;;;5020644;28;20319;-82
2023/12/11 01:32:59;;;;;;;13.50;2.40;;;5.60;99.90;;;;;;5012658;28;20218;-82
2023/12/11 01:35:26;;;;;;;5.70;2.30;;;5.60;99.90;;;;;;5006620;28;20230;-83
2023/12/11 01:37:53;;;;;;;8.43;2.13;;;5.60;99.90;;;;;;4996860;28;20246;-82
2023/12/11 01:40:20;;;;;;;6.73;2.30;;;5.60;99.90;;;;;;5010091;28;20644;-82
2023/12/11 01:42:47;;;;;;;7.60;2.23;;;5.60;99.90;;;;;;5006545;28;20228;-82
2023/12/11 01:45:14;;;;;;;6.80;2.40;;;5.60;99.90;;;;;;5020516;28;20240;-83
2023/12/11 01:47:43;;;;;;;12.13;2.37;;;5.60;99.90;;;;;;4985421;28;20244;-83
2023/12/11 01:50:10;;;;;;;6.87;2.23;;;5.60;99.90;;;;;;5001793;28;20708;-82
2023/12/11 01:52:38;;;;;;;8.67;2.13;;;5.60;99.90;;;;;;5013388;28;20259;-83
2023/12/11 01:55:07;;;;;;;15.67;2.90;;;5.60;99.90;;;;;;5032243;28;20311;-83
2023/12/11 01:57:34;;;;;;;5.87;2.40;;;5.70;99.90;;;;;;5009841;28;20310;-83
2023/12/11 02:00:04;;;;;;;12.00;2.83;;;5.70;99.90;;;;;;4992487;28;20769;-83
2023/12/11 02:02:32;;;;;;;8.73;3.13;;;5.70;99.90;;;;;;5019999;28;20231;-82
2023/12/11 02:05:00;;;;;;;15.87;3.77;;;5.70;99.90;;;;;;5022734;28;20935;-82
2023/12/11 02:07:27;;;;;;;26.67;4.43;;;5.70;99.90;;;;;;5019355;28;21807;-82
2023/12/11 02:09:54;;;;;;;13.30;2.93;;;5.80;99.90;;;;;;5020930;28;20617;-82
2023/12/11 02:12:21;;;;;;;9.00;2.87;;;5.80;99.90;;;;;;5018824;28;20221;-82
2023/12/11 02:14:48;;;;;;;25.97;3.73;;;5.80;99.90;;;;;;5028902;28;20231;-82
2023/12/11 02:17:14;;;;;;;22.77;4.57;;;5.80;99.90;;;;;;5010734;28;20236;-82
2023/12/11 02:19:41;;;;;;;12.17;3.20;;;5.80;99.90;;;;;;5025047;28;20226;-82
2023/12/11 02:22:09;;;;;;;8.80;3.03;;;5.80;99.90;;;;;;5034000;28;20221;-82
2023/12/11 02:24:43;;;;;;;6.80;2.77;;;5.80;99.90;;;;;;5026506;28;20947;-82
2023/12/11 02:27:11;;;;;;;9.30;3.53;;;5.90;99.90;;;;;;5004184;28;20226;-83
2023/12/11 02:29:38;;;;;;;18.97;4.13;;;5.90;99.90;;;;;;5019235;28;20764;-83
2023/12/11 02:32:05;;;;;;;9.13;3.57;;;5.90;99.90;;;;;;5022719;28;20479;-83
2023/12/11 02:34:32;;;;;;;10.27;3.77;;;5.90;99.90;;;;;;5020722;28;20315;-83
2023/12/11 02:36:58;;;;;;;11.63;4.00;;;5.90;99.90;;;;;;5007947;28;20259;-81
2023/12/11 02:39:25;;;;;;;14.43;4.23;;;5.90;99.90;;;;;;4984966;28;20264;-82
2023/12/11 02:41:52;;;;;;;9.37;4.67;;;5.90;99.90;;;;;;5007537;28;20229;-82
2023/12/11 02:44:21;;;;;;;9.47;5.07;;;5.90;99.90;;;;;;5023040;28;20240;-82
2023/12/11 02:46:48;;;;;;;11.33;4.73;;;6.00;99.90;;;;;;5026014;28;20229;-82
2023/12/11 02:49:15;;;;;;;10.40;5.80;;;6.00;99.90;;;;;;5024832;28;20229;-82
2023/12/11 02:51:42;;;;;;;9.43;5.93;;;6.00;99.90;;;;;;4995332;28;20245;-81
2023/12/11 02:54:09;;;;;;;10.00;5.87;;;6.10;99.90;;;;;;5007956;28;20274;-82
2023/12/11 02:56:39;;;;;;;13.57;6.73;;;6.00;99.90;;;;;;5029742;28;20280;-82
2023/12/11 02:59:06;;;;;;;12.67;7.00;;;6.10;99.90;;;;;;5012625;28;20241;-82
2023/12/11 03:01:38;;;;;;;14.63;6.67;;;6.10;99.90;;;;;;5019148;28;20216;-84
2023/12/11 03:04:05;;;;;;;13.23;7.30;;;6.10;99.90;;;;;;5028347;28;20644;-83
2023/12/11 03:06:32;;;;;;;14.90;7.10;;;6.20;99.90;;;;;;5017678;28;20231;-84
2023/12/11 03:09:02;;;;;;;12.03;6.77;;;6.20;99.90;;;;;;5048081;28;20320;-84
2023/12/11 03:11:29;;;;;;;19.60;7.23;;;6.30;99.90;;;;;;5029459;28;20236;-84
2023/12/11 03:13:56;;;;;;;14.00;7.20;;;6.30;99.90;;;;;;5019982;28;20244;-83
2023/12/11 03:16:23;;;;;;;11.97;6.97;;;6.30;99.90;;;;;;5021808;28;20331;-83
2023/12/11 03:18:51;;;;;;;12.67;6.83;;;6.40;99.90;;;;;;5024799;28;20240;-83
2023/12/11 03:21:18;;;;;;;13.17;7.13;;;6.40;99.90;;;;;;5008003;28;20299;-83
2023/12/11 03:23:45;;;;;;;15.23;6.87;;;6.40;99.90;;;;;;5014041;28;20717;-83
2023/12/11 03:26:12;;;;;;;12.83;6.80;;;6.50;99.90;;;;;;5013855;28;20225;-83
2023/12/11 03:28:39;;;;;;;15.10;6.57;;;6.60;99.90;;;;;;5027314;28;20594;-83
2023/12/11 03:31:06;;;;;;;13.27;6.80;;;6.60;99.90;;;;;;5012386;28;20236;-83
2023/12/11 03:33:32;;;;;;;11.57;6.53;;;6.60;99.90;;;;;;5024737;28;20231;-82
2023/12/11 03:36:00;;;;;;;12.97;6.23;;;6.70;99.90;;;;;;5010191;28;20583;-83
2023/12/11 03:38:27;;;;;;;12.43;6.20;;;6.70;99.90;;;;;;5027774;28;20326;-83
2023/12/11 03:40:54;;;;;;;13.63;6.70;;;6.70;99.90;;;;;;5019055;28;20838;-83
2023/12/11 03:43:21;;;;;;;11.93;6.47;;;6.70;99.90;;;;;;4989640;28;20224;-82
2023/12/11 03:45:48;;;;;;;21.90;5.73;;;6.80;99.90;;;;;;5002397;28;20231;-82
2023/12/11 03:48:15;;;;;;;13.70;5.57;;;6.80;99.90;;;;;;5002837;28;20221;-82
2023/12/11 03:50:41;;;;;;;16.47;5.30;;;6.80;99.90;;;;;;4996780;28;20275;-83
2023/12/11 03:53:10;;;;;;;14.77;5.10;;;6.80;99.90;;;;;;4995813;28;20717;-83
2023/12/11 03:55:37;;;;;;;14.50;5.80;;;6.80;99.90;;;;;;5011846;28;20226;-82
2023/12/11 03:58:03;;;;;;;14.47;5.37;;;6.90;99.90;;;;;;5010998;28;20239;-82
2023/12/11 04:00:30;;;;;;;15.33;4.93;;;6.90;99.90;;;;;;5012475;28;20230;-82
2023/12/11 04:02:57;;;;;;;18.20;5.50;;;6.90;99.90;;;;;;5017603;28;20248;-83
2023/12/11 04:05:24;;;;;;;15.53;5.03;;;7.00;99.90;;;;;;5031619;28;20644;-83
2023/12/11 04:07:50;;;;;;;14.27;4.90;;;7.00;99.90;;;;;;5034488;28;20271;-83
2023/12/11 04:10:18;;;;;;;18.93;5.33;;;7.00;99.90;;;;;;5009235;28;20448;-83
2023/12/11 04:12:45;;;;;;;18.00;4.77;;;6.90;99.90;;;;;;5024125;28;20290;-83
2023/12/11 04:15:12;;;;;;;18.03;4.97;;;6.90;99.90;;;;;;5025634;28;20643;-83
2023/12/11 04:17:42;;;;;;;20.73;5.13;;;6.90;99.90;;;;;;5029176;28;20225;-82
2023/12/11 04:20:09;;;;;;;16.70;4.50;;;6.90;99.90;;;;;;5027773;28;20222;-82
2023/12/11 04:22:36;;;;;;;20.50;5.47;;;6.80;99.90;;;;;;5024783;28;20226;-82
2023/12/11 04:25:03;;;;;;;23.20;4.37;;;6.80;99.90;;;;;;5026582;28;20224;-82
2023/12/11 04:27:31;;;;;;;21.03;5.20;;;6.80;99.90;;;;;;5010048;28;20596;-82
2023/12/11 04:29:58;;;;;;;13.73;4.57;;;6.80;99.90;;;;;;5034685;28;20315;-82
2023/12/11 04:32:25;;;;;;;20.40;4.90;;;6.80;99.90;;;;;;5026390;28;20220;-82
2023/12/11 04:34:52;;;;;;;22.67;5.07;;;6.80;99.90;;;;;;5025997;28;20601;-83
2023/12/11 04:37:20;;;;;;;19.10;4.87;;;6.80;99.90;;;;;;5008223;28;20294;-83
2023/12/11 04:39:47;;;;;;;23.90;5.23;;;6.80;99.90;;;;;;5026156;28;20251;-82
2023/12/11 04:42:13;;;;;;;23.63;4.57;;;6.90;99.90;;;;;;5019714;28;20705;-83
2023/12/11 04:44:42;;;;;;;24.67;4.80;;;6.90;99.90;;;;;;5012685;28;20258;-83
2023/12/11 04:47:09;;;;;;;20.40;5.17;;;7.00;99.90;;;;;;5025489;28;20217;-83
2023/12/11 04:49:36;;;;;;;23.17;5.60;;;7.10;99.90;;;;;;5016595;28;20545;-83
2023/12/11 04:52:03;;;;;;;24.27;5.20;;;7.10;99.90;;;;;;5012921;28;20245;-83
2023/12/11 04:54:30;;;;;;;26.40;5.77;;;7.10;99.90;;;;;;5022443;28;20231;-83
2023/12/11 04:56:57;;;;;;;27.67;5.90;;;7.20;99.90;;;;;;5006777;28;20705;-83
2023/12/11 04:59:24;;;;;;;27.43;7.47;;;7.20;99.90;;;;;;5008453;28;20454;-84
2023/12/11 05:01:52;;;;;;;20.50;5.80;;;7.20;99.90;;;;;;5032478;28;20559;-84
2023/12/11 05:04:19;;;;;;;31.20;5.63;;;7.30;99.90;;;;;;5019428;28;20648;-83
2023/12/11 05:06:45;;;;;;;24.50;5.93;;;7.30;99.90;;;;;;5025895;28;20551;-84
2023/12/11 05:09:12;;;;;;;24.70;6.10;;;7.30;99.90;;;;;;5000262;28;20288;-84
2023/12/11 05:11:39;;;;;;;29.40;6.53;;;7.40;99.90;;;;;;5005370;28;20279;-83
2023/12/11 05:14:06;;;;;;;29.50;7.33;;;7.40;99.90;;;;;;5024555;28;20309;-83
2023/12/11 05:16:32;;;;;;;29.17;5.87;;;7.40;99.90;;;;;;5022669;28;20235;-85
2023/12/11 05:19:00;;;;;;;22.87;5.60;;;7.40;99.90;;;;;;5019298;28;20253;-83
2023/12/11 05:21:27;;;;;;;27.63;5.97;;;7.50;99.90;;;;;;5039215;28;20659;-83
2023/12/11 05:23:54;;;;;;;32.53;6.90;;;7.50;99.90;;;;;;5026758;28;20244;-83
2023/12/11 05:26:21;;;;;;;30.43;8.23;;;7.50;99.90;;;;;;5015914;28;20264;-83
2023/12/11 05:28:48;;;;;;;26.97;7.13;;;7.50;99.90;;;;;;5027417;28;20610;-83
2023/12/11 05:31:15;;;;;;;26.77;6.73;;;7.50;99.90;;;;;;5024993;28;20742;-83
2023/12/11 05:33:42;;;;;;;24.33;6.33;;;7.50;99.90;;;;;;4985800;28;20618;-84
2023/12/11 05:36:11;;;;;;;28.23;7.43;;;7.50;99.90;;;;;;5003256;28;20296;-84
2023/12/11 05:38:37;;;;;;;30.80;6.87;;;7.50;99.90;;;;;;5003907;28;20690;-84
2023/12/11 05:41:05;;;;;;;28.87;7.33;;;7.60;99.90;;;;;;5011664;28;20678;-84
2023/12/11 05:43:32;;;;;;;28.33;8.07;;;7.60;99.90;;;;;;5007595;28;20227;-85
2023/12/11 05:45:58;;;;;;;35.40;7.57;;;7.60;99.90;;;;;;5014793;28;20249;-84
2023/12/11 05:48:25;;;;;;;34.60;7.60;;;7.60;99.90;;;;;;5006710;28;20288;-85
2023/12/11 05:50:52;;;;;;;31.23;7.93;;;7.60;99.90;;;;;;5026162;28;20308;-85
2023/12/11 05:53:20;;;;;;;30.97;8.40;;;7.60;99.90;;;;;;5030366;28;20290;-83
2023/12/11 05:55:47;;;;;;;33.47;7.10;;;7.60;99.90;;;;;;5024347;28;20774;-85
2023/12/11 05:58:14;;;;;;;33.63;7.40;;;7.60;99.90;;;;;;5024908;28;20298;-84
2023/12/11 06:00:41;;;;;;;28.30;7.23;;;7.60;99.90;;;;;;5024726;28;20234;-84
2023/12/11 06:03:08;;;;;;;28.83;7.57;;;7.60;99.90;;;;;;5013056;28;20684;-84
2023/12/11 06:05:35;;;;;;;26.20;7.00;;;7.60;99.90;;;;;;5027801;28;20601;-83
2023/12/11 06:08:03;;;;;;;29.90;7.77;;;7.60;99.90;;;;;;5034388;28;20228;-87
2023/12/11 06:10:31;;;;;;;31.00;7.23;;;7.60;99.90;;;;;;5021725;28;20582;-84
2023/12/11 06:12:58;;;;;;;33.67;7.90;;;7.60;99.90;;;;;;5012091;28;20226;-84
2023/12/11 06:15:26;;;;;;;30.47;7.03;;;7.60;99.90;;;;;;5019716;28;20732;-84
2023/12/11 06:17:53;;;;;;;28.67;6.87;;;7.60;99.90;;;;;;5025019;28;20313;-84
2023/12/11 06:20:20;;;;;;;36.60;7.20;;;7.60;99.90;;;;;;5021687;28;20780;-85
2023/12/11 06:22:47;;;;;;;31.83;7.37;;;7.60;99.90;;;;;;5005456;28;20235;-84
2023/12/11 06:25:14;;;;;;;30.67;7.20;;;7.70;99.90;;;;;;5020602;28;20798;-84
2023/12/11 06:27:43;;;;;;;29.53;6.87;;;7.60;99.90;;;;;;5006418;28;20320;-84
2023/12/11 06:30:11;;;;;;;34.33;7.37;;;7.60;99.90;;;;;;5034654;28;20231;-84
2023/12/11 06:32:37;;;;;;;29.87;6.83;;;7.60;99.90;;;;;;5012827;28;20237;-84
2023/12/11 06:35:06;;;;;;;38.90;7.60;;;7.60;99.90;;;;;;5012121;28;21311;-84
2023/12/11 06:37:33;;;;;;;36.77;8.27;;;7.60;99.90;;;;;;5014715;28;20242;-83
2023/12/11 06:40:00;;;;;;;28.10;7.00;;;7.60;99.90;;;;;;5031318;28;20228;-84
2023/12/11 06:42:27;;;;;;;28.73;6.37;;;7.60;99.90;;;;;;5014879;28;20634;-84
2023/12/11 06:44:55;;;;;;;31.53;6.60;;;7.60;99.90;;;;;;5020054;28;20305;-84
2023/12/11 06:47:22;;;;;;;38.63;8.40;;;7.70;99.90;;;;;;5007071;28;20333;-85
2023/12/11 06:49:49;;;;;;;26.83;7.10;;;7.70;99.90;;;;;;5024904;28;20635;-84
2023/12/11 06:52:15;;;;;;;32.83;7.53;;;7.60;99.90;;;;;;5019046;28;20296;-85
2023/12/11 06:54:42;;;;;;;28.53;7.73;;;7.70;99.90;;;;;;5041978;28;20310;-85
2023/12/11 06:57:09;;;;;;;35.90;7.87;;;7.60;99.90;;;;;;5023522;28;20295;-84
2023/12/11 06:59:36;;;;;;;32.43;7.83;;;7.70;99.90;;;;;;5019155;28;20444;-84
2023/12/11 07:02:05;;;;;;;35.77;7.47;;;7.60;99.90;;;;;;5020843;28;20310;-84
2023/12/11 07:04:31;;;;;;;30.37;7.10;;;7.70;99.90;;;;;;5018828;28;20724;-85
2023/12/11 07:06:58;;;;;;;33.80;7.63;;;7.60;99.90;;;;;;5012236;28;20221;-83
2023/12/11 07:09:26;;;;;;;38.50;8.40;;;7.60;99.90;;;;;;5028161;28;20223;-84
2023/12/11 07:11:53;;;;;;;39.70;8.10;;;7.70;99.90;;;;;;5029664;28;20266;-83
2023/12/11 07:14:20;;;;;;;40.30;8.00;;;7.60;99.90;;;;;;5002946;28;20810;-83
2023/12/11 07:16:47;;;;;;;39.70;8.13;;;7.60;99.90;;;;;;5011594;28;20777;-83
2023/12/11 07:19:15;;;;;;;32.90;8.07;;;7.60;99.90;;;;;;5005891;28;20692;-84
2023/12/11 07:21:43;;;;;;;41.03;8.00;;;7.60;99.90;;;;;;5037643;28;20309;-83
2023/12/11 07:24:09;;;;;;;37.10;7.93;;;7.60;99.90;;;;;;5028969;28;20329;-83
2023/12/11 07:26:36;;;;;;;36.73;7.73;;;7.60;99.90;;;;;;5008371;28;20615;-84
2023/12/11 07:29:04;;;;;;;40.80;7.70;;;7.60;99.90;;;;;;5007681;28;20238;-84
2023/12/11 07:31:31;;;;;;;34.13;8.07;;;7.60;99.90;;;;;;5030455;28;20782;-84
2023/12/11 07:33:57;;;;;;;42.87;7.70;;;7.60;99.90;;;;;;5024204;28;20229;-84
2023/12/11 07:36:26;;;;;;;33.33;7.80;;;7.50;99.90;;;;;;4997423;28;20309;-84
2023/12/11 07:38:52;;;;;;;35.30;7.60;;;7.60;99.90;;;;;;4988679;28;20426;-84
2023/12/11 07:41:20;;;;;;;37.30;7.30;;;7.50;99.90;;;;;;5004592;28;20253;-85
2023/12/11 07:43:47;;;;;;;33.60;7.37;;;7.50;99.90;;;;;;5024321;28;20245;-83
2023/12/11 07:46:17;;;;;;;33.13;7.50;;;7.50;99.90;;;;;;4995142;28;20231;-82
2023/12/11 07:48:44;;;;;;;34.73;6.87;;;7.50;99.90;;;;;;4996526;28;20315;-85
2023/12/11 07:51:18;;;;;;;97.90;11.80;;;7.40;99.90;;;;;;5008929;28;20218;-85
2023/12/11 07:53:46;;;;;;;32.30;6.87;;;7.40;99.90;;;;;;5044964;28;20231;-84
2023/12/11 07:56:19;;;;;;;47.53;8.37;;;7.40;99.90;;;;;;5027210;28;20283;-84
2023/12/11 07:58:46;;;;;;;33.70;6.80;;;7.40;99.90;;;;;;5028690;28;20223;-83
2023/12/11 08:01:13;;;;;;;55.70;8.67;;;7.40;99.90;;;;;;5026875;28;20288;-82
2023/12/11 08:03:40;;;;;;;33.33;7.10;;;7.40;99.90;;;;;;5010553;28;20294;-84
2023/12/11 08:06:08;;;;;;;56.23;8.63;;;7.50;99.90;;;;;;5008455;28;20645;-82
2023/12/11 08:08:40;;;;;;;35.73;6.53;;;7.40;99.90;;;;;;5011035;28;20232;-81
2023/12/11 08:11:16;;;;;;;72.40;9.63;;;7.40;99.90;;;;;;5004984;28;20234;-83
2023/12/11 08:13:45;;;;;;;43.83;7.43;;;7.40;99.90;;;;;;4995692;28;20658;-84
2023/12/11 08:16:12;;;;;;;36.70;6.00;;;7.40;99.90;;;;;;5017302;28;20227;-83
2023/12/11 08:18:40;;;;;;;29.90;6.10;;;7.50;99.90;;;;;;5007763;28;20455;-84
2023/12/11 08:21:07;;;;;;;30.43;6.13;;;7.50;99.90;;;;;;5021250;28;20312;-83
2023/12/11 08:23:34;;;;;;;31.73;6.70;;;7.50;99.90;;;;;;5013551;28;20540;-83
2023/12/11 08:26:02;;;;;;;31.10;6.40;;;7.50;99.90;;;;;;5024915;28;20231;-83
2023/12/11 08:28:30;;;;;;;27.07;5.70;;;7.50;99.90;;;;;;5011188;28;20301;-83
2023/12/11 08:30:57;;;;;;;26.20;6.10;;;7.60;99.90;;;;;;5002544;28;20267;-82
2023/12/11 08:33:24;;;;;;;27.10;6.47;;;7.60;99.90;;;;;;4998198;28;20295;-81
2023/12/11 08:35:50;;;;;;;26.43;6.30;;;7.70;99.90;;;;;;5027271;28;20358;-83
2023/12/11 08:38:17;;;;;;;25.07;6.13;;;7.70;99.90;;;;;;5048043;28;20266;-83
2023/12/11 08:40:44;;;;;;;23.53;6.77;;;7.70;99.90;;;;;;5032422;28;20772;-83
2023/12/11 08:43:12;;;;;;;27.67;5.83;;;7.80;99.90;;;;;;5027379;28;20749;-85
2023/12/11 08:45:40;;;;;;;30.63;6.60;;;7.80;99.90;;;;;;5023646;28;20220;-85
2023/12/11 08:48:07;;;;;;;23.87;6.17;;;7.90;99.90;;;;;;4998353;28;20332;-86
2023/12/11 08:50:34;;;;;;;21.03;6.37;;;7.90;99.90;;;;;;4996102;28;20706;-82
2023/12/11 08:53:03;;;;;;;34.13;7.30;;;8.00;99.90;;;;;;5003802;28;20232;-83
2023/12/11 08:55:30;;;;;;;25.97;6.43;;;8.00;99.90;;;;;;4989378;28;20232;-83
2023/12/11 08:57:57;;;;;;;25.67;6.23;;;8.00;99.90;;;;;;5027928;28;20231;-83
2023/12/11 09:00:23;;;;;;;21.93;6.70;;;8.10;99.90;;;;;;5012277;28;20335;-83
2023/12/11 09:02:52;;;;;;;25.00;5.83;;;8.10;99.90;;;;;;5037045;28;20326;-83
2023/12/11 09:05:18;;;;;;;26.73;6.27;;;8.20;99.90;;;;;;4992435;28;20234;-83
2023/12/11 09:07:45;;;;;;;30.80;6.10;;;8.20;99.90;;;;;;5005443;28;20313;-83
2023/12/11 09:10:12;;;;;;;32.00;8.20;;;8.20;99.90;;;;;;5009510;28;20223;-83
2023/12/11 09:12:40;;;;;;;29.10;7.80;;;8.20;99.90;;;;;;5022944;28;20230;-83
2023/12/11 09:15:08;;;;;;;24.30;8.03;;;8.20;99.90;;;;;;5024303;28;20356;-83
2023/12/11 09:17:34;;;;;;;27.80;5.83;;;8.30;99.90;;;;;;5009006;28;20785;-86
2023/12/11 09:20:04;;;;;;;27.53;6.60;;;8.30;99.90;;;;;;5009673;28;20762;-83
2023/12/11 09:22:31;;;;;;;21.40;6.27;;;8.30;99.90;;;;;;5013964;28;20246;-83
2023/12/11 09:24:57;;;;;;;26.37;6.53;;;8.40;99.90;;;;;;5023700;28;20276;-83
2023/12/11 09:27:24;;;;;;;28.23;6.80;;;8.30;99.90;;;;;;5008863;28;20234;-83
2023/12/11 09:29:51;;;;;;;23.50;6.37;;;8.30;99.90;;;;;;5023909;28;20306;-83
2023/12/11 09:32:18;;;;;;;23.90;6.40;;;8.30;99.90;;;;;;5003770;28;20248;-84
2023/12/11 09:34:45;;;;;;;19.60;6.00;;;8.30;99.90;;;;;;5018409;28;20271;-83
2023/12/11 09:37:13;;;;;;;26.73;6.33;;;8.30;99.90;;;;;;5023731;28;20314;-84
2023/12/11 09:39:40;;;;;;;30.40;7.00;;;8.40;99.90;;;;;;4995574;28;20223;-82
2023/12/11 09:42:08;;;;;;;17.30;4.97;;;8.30;99.90;;;;;;5020686;28;20344;-80
2023/12/11 09:44:35;;;;;;;13.33;3.77;;;8.30;99.90;;;;;;5008250;28;20330;-82
2023/12/11 09:47:06;;;;;;;13.63;3.67;;;8.30;99.90;;;;;;5025348;28;20336;-82
2023/12/11 09:49:32;;;;;;;27.97;4.13;;;8.30;99.90;;;;;;5024702;28;20251;-81
2023/12/11 09:52:00;;;;;;;14.93;3.17;;;8.20;99.90;;;;;;5025959;28;20254;-82
2023/12/11 09:54:28;;;;;;;12.33;3.50;;;8.20;99.90;;;;;;5006547;28;20239;-82
2023/12/11 09:56:55;;;;;;;13.73;3.33;;;8.10;99.90;;;;;;5024741;28;20321;-82
2023/12/11 09:59:25;;;;;;;13.87;6.50;;;8.10;99.90;;;;;;5006202;28;20593;-83
2023/12/11 10:01:52;;;;;;;10.03;2.40;;;8.10;99.90;;;;;;5021908;28;20263;-83
2023/12/11 10:04:19;;;;;;;10.27;2.80;;;8.00;99.90;;;;;;5016249;28;20336;-83
2023/12/11 10:06:45;;;;;;;7.57;2.20;;;8.00;99.90;;;;;;5022072;28;20262;-84
2023/12/11 10:09:28;;;;;;;9.87;2.57;;;8.00;99.90;;;;;;5024688;28;20305;-82
2023/12/11 10:11:59;;;;;;;8.63;2.70;;;8.00;99.90;;;;;;5008875;28;20627;-83
2023/12/11 10:14:27;;;;;;;14.67;4.07;;;8.00;99.90;;;;;;5022696;28;20614;-84
2023/12/11 10:16:54;;;;;;;18.40;6.00;;;8.00;99.90;;;;;;5010542;28;20627;-83
2023/12/11 10:19:31;;;;;;;22.13;5.57;;;8.00;99.90;;;;;;5026699;28;20305;-83
2023/12/11 10:21:59;;;;;;;21.20;6.00;;;8.10;99.90;;;;;;5008729;28;20230;-83
2023/12/11 10:24:26;;;;;;;22.97;6.33;;;8.10;99.90;;;;;;5025350;28;20234;-81
2023/12/11 10:26:59;;;;;;;24.20;6.83;;;8.10;99.90;;;;;;5007611;28;20731;-82
2023/12/11 10:29:27;;;;;;;27.00;6.37;;;8.20;99.90;;;;;;5024815;28;20544;-81
2023/12/11 10:32:01;;;;;;;27.40;7.50;;;8.20;99.90;;;;;;5036559;28;20277;-83
2023/12/11 10:34:42;;;;;;;23.57;6.87;;;8.30;99.90;;;;;;5030238;28;20296;-82
2023/12/11 10:37:09;;;;;;;22.37;6.30;;;8.40;99.90;;;;;;5000040;28;20218;-82
2023/12/11 10:39:37;;;;;;;27.83;6.60;;;8.50;99.90;;;;;;5012925;28;20230;-81
2023/12/11 10:42:16;;;;;;;16.27;6.13;;;8.50;99.90;;;;;;5030615;28;20253;-81
2023/12/11 10:44:44;;;;;;;26.60;6.27;;;8.60;99.90;;;;;;5016219;28;20235;-81
2023/12/11 10:47:11;;;;;;;21.23;5.97;;;8.60;99.90;;;;;;5015059;28;20219;-81
2023/12/11 10:49:38;;;;;;;22.40;6.20;;;8.70;99.90;;;;;;5015414;28;20228;-82
2023/12/11 10:52:05;;;;;;;22.50;5.37;;;8.70;99.90;;;;;;5009574;28;20225;-82
2023/12/11 10:54:32;;;;;;;21.70;5.17;;;8.80;99.90;;;;;;5007213;28;20870;-81
2023/12/11 10:57:02;;;;;;;22.63;5.40;;;8.80;99.90;;;;;;5022652;28;20711;-82
2023/12/11 10:59:31;;;;;;;23.43;5.80;;;8.80;99.90;;;;;;5015599;28;20715;-82
2023/12/11 11:02:00;;;;;;;22.03;6.70;;;8.90;99.90;;;;;;5029269;28;20258;-82
2023/12/11 11:04:30;;;;;;;22.13;5.07;;;8.90;99.90;;;;;;5003345;28;20256;-82
2023/12/11 11:07:08;;;;;;;20.53;5.03;;;9.00;99.90;;;;;;5002959;28;20247;-82
2023/12/11 11:09:47;;;;;;;15.27;4.40;;;9.00;99.90;;;;;;5005381;28;20235;-82
2023/12/11 11:12:20;;;;;;;21.37;5.17;;;9.00;99.90;;;;;;5014995;28;20325;-82
2023/12/11 11:14:49;;;;;;;16.63;4.60;;;9.00;99.90;;;;;;5033366;28;20236;-82
2023/12/11 11:17:17;;;;;;;19.43;4.83;;;9.00;99.90;;;;;;5032131;28;20228;-82
2023/12/11 11:20:09;;;;;;;17.53;4.27;;;9.10;99.90;;;;;;5034939;28;20734;-83
2023/12/11 11:22:36;;;;;;;21.63;4.60;;;9.00;99.90;;;;;;5037121;28;20249;-82
2023/12/11 11:25:30;;;;;;;15.07;3.90;;;9.00;99.90;;;;;;5038428;28;20293;-82
2023/12/11 11:27:57;;;;;;;18.00;4.47;;;9.00;99.90;;;;;;5018876;28;20227;-82
2023/12/11 11:30:51;;;;;;;14.30;4.17;;;9.10;99.90;;;;;;5017884;28;20219;-82
2023/12/11 11:33:19;;;;;;;14.07;4.53;;;9.00;99.90;;;;;;5030491;28;20236;-83
2023/12/11 11:35:53;;;;;;;16.63;6.27;;;9.10;99.90;;;;;;5031028;28;20290;-82
2023/12/11 11:38:41;;;;;;;15.87;5.00;;;9.10;99.90;;;;;;5036789;28;20254;-82
2023/12/11 11:41:22;;;;;;;16.73;4.53;;;9.10;99.90;;;;;;5023048;28;20284;-82
2023/12/11 11:43:56;;;;;;;17.90;4.03;;;9.10;99.90;;;;;;5023182;28;20262;-82
2023/12/11 11:46:25;;;;;;;13.03;4.40;;;9.10;99.90;;;;;;5032248;28;20235;-82
2023/12/11 11:48:51;;;;;;;17.00;4.63;;;9.00;99.90;;;;;;5032586;28;20250;-82
2023/12/11 11:51:20;;;;;;;16.37;4.37;;;9.10;99.90;;;;;;5015837;28;20256;-82
2023/12/11 11:53:51;;;;;;;14.77;4.37;;;9.10;99.90;;;;;;5021281;28;20231;-82
2023/12/11 11:56:18;;;;;;;17.20;4.47;;;9.10;99.90;;;;;;5014736;28;20672;-82
2023/12/11 11:58:45;;;;;;;16.67;4.83;;;9.20;99.90;;;;;;5016520;28;20750;-82
2023/12/11 12:01:12;;;;;;;16.70;4.03;;;9.20;99.90;;;;;;5030214;28;20568;-82
2023/12/11 12:03:44;;;;;;;13.10;3.80;;;9.30;99.90;;;;;;5011575;28;20232;-83
2023/12/11 12:06:14;;;;;;;13.63;3.67;;;9.40;99.90;;;;;;4989050;28;20733;-83
2023/12/11 12:08:43;;;;;;;10.27;3.47;;;9.40;99.90;;;;;;5017558;28;20229;-84
2023/12/11 12:11:12;;;;;;;13.80;4.00;;;9.60;99.90;;;;;;4991438;28;20571;-84
2023/12/11 12:13:39;;;;;;;11.57;4.00;;;9.60;99.90;;;;;;5010279;28;20231;-83
2023/12/11 12:16:06;;;;;;;10.53;4.03;;;9.70;99.90;;;;;;4994207;28;20473;-83
2023/12/11 12:18:33;;;;;;;10.57;3.90;;;9.70;99.90;;;;;;5024808;28;20240;-82
2023/12/11 12:21:06;;;;;;;11.47;3.53;;;9.80;99.90;;;;;;5027847;28;20419;-85
2023/12/11 12:23:33;;;;;;;12.17;3.30;;;9.80;99.90;;;;;;5032162;28;20249;-84
2023/12/11 12:26:02;;;;;;;12.50;3.80;;;9.80;99.90;;;;;;5024104;28;20298;-84
2023/12/11 12:28:29;;;;;;;10.50;3.00;;;9.80;99.90;;;;;;5008463;28;20228;-84
2023/12/11 12:30:56;;;;;;;12.07;3.77;;;9.80;99.90;;;;;;5011051;28;20653;-84
2023/12/11 12:33:23;;;;;;;11.40;3.40;;;9.80;99.90;;;;;;5011144;28;20294;-85
2023/12/11 12:35:50;;;;;;;10.63;3.20;;;9.70;99.90;;;;;;5012363;28;20232;-85
2023/12/11 12:38:19;;;;;;;9.40;3.27;;;9.80;99.90;;;;;;5032603;28;20266;-84
2023/12/11 12:40:46;;;;;;;7.10;2.90;;;9.70;99.90;;;;;;5026743;28;20231;-84
2023/12/11 12:43:13;;;;;;;14.43;3.50;;;9.80;99.90;;;;;;5024569;28;20275;-84
2023/12/11 12:45:40;;;;;;;7.30;3.03;;;9.70;99.90;;;;;;5022072;28;20256;-84
2023/12/11 12:48:09;;;;;;;8.80;3.10;;;9.70;99.90;;;;;;5012746;28;20286;-84
2023/12/11 12:50:37;;;;;;;13.27;5.00;;;9.70;99.90;;;;;;4994333;28;20236;-83
2023/12/11 12:53:05;;;;;;;11.47;4.03;;;9.70;99.90;;;;;;4996613;28;20618;-84